KDVL

Devils Lake Regional Airport

Devils Lake, North Dakota, USA
METAR KDVL 181256Z AUTO 23006KT 10SM CLR M05/M07 A2976 RMK AO2 SLP116 T10501067 FZRANO
Observed Flight Rules
Dec-18 @ 12:56 UTC (13 minutes ago) Visual Flight Rules
Wind Visibility Clouds
230° at 6 knots 10 miles
  • Clear skies
Temperatures Readings
Current -5°C / 23°F
Dewpoint -7°C / 19°F
Humidity 86%
Altimeter 29.76" Hg
Pressure 1011.6 hPa
Elevation 443
METAR KDVL 181256Z AUTO 23006KT 10SM CLR M05/M07 A2976 RMK AO2 SLP116 T10501067 FZRANO
Observed Flight Rules
Dec-18 @ 12:56 UTC
(13 minutes ago)
VFR
Wind Visibility
230° at 6 knots 10 miles
Clouds
  • Clear skies
Temperature Dewpoint
-5°C / 23°F -7°C / 19°F
Humidity Altimeter Pressure
86% 29.76" Hg 1011.6 hPa